Terminal Aerodrome Forecast
Issued by NWS El Paso, TX

Home | Current Version | Previous Version | Text Only | Print | Product List | Glossary On
Versions: 1 2 3 4 5 6 7 8 9 10 11 12
779
FTUS44 KEPZ 212320
TAFELP
TAF
KELP 212320Z 2200/2224 36005KT P6SM SCT250
     FM220200 06010KT P6SM BKN250
     FM221700 15004KT P6SM SCT250=

USA.gov is the U.S. government's official web portal to all federal, state and local government web resources and services.